Time;durP1;ratioP1;P1;durP2;ratioP2;P2;SDS_P1;SDS_P2;PMS_P1;PMS_P2;Temp;Humidity;BMP_temperature;BMP_pressure;BME280_temperature;BME280_humidity;BME280_pressure;Samples;Min_cycle;Max_cycle;Signal;HPM_P1;HPM_P2
2023/12/25 00:01:34;;;;;;;43.55;39.53;;;;;;;;;;4147993;28;20422;-63
2023/12/25 00:03:36;;;;;;;44.13;40.17;;;;;;;;;;4147839;28;20124;-63
2023/12/25 00:05:50;;;;;;;40.42;36.90;;;;;;;;;;4146239;28;20466;-63
2023/12/25 00:07:55;;;;;;;39.33;35.63;;;;;;;;;;4144079;28;20038;-63
2023/12/25 00:09:57;;;;;;;47.08;42.75;;;;;;;;;;4148196;28;20481;-63
2023/12/25 00:11:58;;;;;;;41.03;37.80;;;;;;;;;;4147839;28;20053;-63
2023/12/25 00:14:00;;;;;;;41.80;38.47;;;;;;;;;;4148120;28;20049;-63
2023/12/25 00:16:02;;;;;;;37.25;34.53;;;;;;;;;;4147284;28;20125;-63
2023/12/25 00:18:03;;;;;;;39.07;35.77;;;;;;;;;;4148437;28;20072;-62
2023/12/25 00:20:06;;;;;;;35.05;32.35;;;;;;;;;;4147899;28;20042;-62
2023/12/25 00:22:07;;;;;;;36.72;34.05;;;;;;;;;;4152631;28;20152;-63
2023/12/25 00:24:09;;;;;;;40.30;36.67;;;;;;;;;;4149361;28;20462;-63
2023/12/25 00:26:11;;;;;;;42.15;39.00;;;;;;;;;;4147917;28;20046;-63
2023/12/25 00:28:12;;;;;;;38.40;35.58;;;;;;;;;;4147793;28;20454;-63
2023/12/25 00:30:14;;;;;;;38.30;34.33;;;;;;;;;;4147790;28;20037;-63
2023/12/25 00:32:16;;;;;;;35.33;32.45;;;;;;;;;;4147979;28;20052;-63
2023/12/25 00:34:17;;;;;;;34.55;31.67;;;;;;;;;;4147281;28;20493;-62
2023/12/25 00:36:19;;;;;;;36.63;33.33;;;;;;;;;;4147951;28;20129;-63
2023/12/25 00:38:21;;;;;;;39.35;35.95;;;;;;;;;;4147969;28;20042;-63
2023/12/25 00:40:22;;;;;;;39.42;35.78;;;;;;;;;;4147970;28;20042;-63
2023/12/25 00:42:24;;;;;;;39.23;36.93;;;;;;;;;;4147870;28;20049;-63
2023/12/25 00:44:25;;;;;;;40.13;36.80;;;;;;;;;;4147605;28;20386;-63
2023/12/25 00:46:27;;;;;;;42.67;39.00;;;;;;;;;;4147660;28;20033;-63
2023/12/25 00:48:29;;;;;;;42.97;39.22;;;;;;;;;;4129976;28;20054;-63
2023/12/25 00:50:31;;;;;;;44.03;40.38;;;;;;;;;;4147479;28;20069;-63
2023/12/25 00:52:32;;;;;;;39.15;35.42;;;;;;;;;;4153443;28;20049;-63
2023/12/25 00:54:35;;;;;;;38.83;35.00;;;;;;;;;;4147528;28;20050;-63
2023/12/25 00:56:37;;;;;;;40.22;36.40;;;;;;;;;;4146918;28;20038;-63
2023/12/25 00:58:39;;;;;;;38.20;35.25;;;;;;;;;;4147395;28;20120;-63
2023/12/25 01:00:40;;;;;;;38.33;34.70;;;;;;;;;;4147460;28;20421;-63
2023/12/25 01:02:42;;;;;;;36.77;33.43;;;;;;;;;;4146048;28;20053;-63
2023/12/25 01:04:44;;;;;;;38.53;35.73;;;;;;;;;;4147282;28;20285;-63
2023/12/25 01:06:45;;;;;;;37.03;34.35;;;;;;;;;;4147545;28;20394;-63
2023/12/25 01:08:47;;;;;;;41.08;37.53;;;;;;;;;;4154241;28;20064;-63
2023/12/25 01:10:49;;;;;;;40.33;37.10;;;;;;;;;;4151670;28;20061;-64
2023/12/25 01:12:50;;;;;;;39.23;36.13;;;;;;;;;;4147374;28;20050;-63
2023/12/25 01:14:52;;;;;;;40.58;37.03;;;;;;;;;;4147508;28;20050;-63
2023/12/25 01:16:54;;;;;;;38.80;35.78;;;;;;;;;;4147440;28;20074;-63
2023/12/25 01:18:55;;;;;;;38.72;35.58;;;;;;;;;;4147348;28;20461;-63
2023/12/25 01:20:57;;;;;;;36.83;34.13;;;;;;;;;;4130085;28;20122;-63
2023/12/25 01:22:59;;;;;;;36.10;33.35;;;;;;;;;;4156706;28;20502;-63
2023/12/25 01:25:00;;;;;;;37.47;34.70;;;;;;;;;;4151078;28;20096;-63
2023/12/25 01:27:02;;;;;;;36.28;33.58;;;;;;;;;;4150535;28;20129;-63
2023/12/25 01:29:04;;;;;;;37.15;34.05;;;;;;;;;;4150795;28;20042;-63
2023/12/25 01:31:06;;;;;;;40.10;36.53;;;;;;;;;;4150559;28;20038;-63
2023/12/25 01:33:07;;;;;;;38.95;35.67;;;;;;;;;;4150480;28;20548;-63
2023/12/25 01:35:09;;;;;;;40.65;36.85;;;;;;;;;;4150602;28;20528;-63
2023/12/25 01:37:11;;;;;;;38.95;35.88;;;;;;;;;;4150647;28;20445;-63
2023/12/25 01:39:13;;;;;;;42.33;38.70;;;;;;;;;;4150603;28;20038;-63
2023/12/25 01:41:14;;;;;;;41.93;38.07;;;;;;;;;;4150301;28;20092;-63
2023/12/25 01:43:20;;;;;;;37.75;35.15;;;;;;;;;;4150082;28;20034;-63
2023/12/25 01:45:22;;;;;;;36.77;33.47;;;;;;;;;;4150249;28;20041;-63
2023/12/25 01:47:23;;;;;;;35.00;32.40;;;;;;;;;;4150314;28;20038;-63
2023/12/25 01:49:25;;;;;;;37.10;34.22;;;;;;;;;;4150605;28;20190;-63
2023/12/25 01:51:27;;;;;;;35.28;32.35;;;;;;;;;;4150302;28;20034;-63
2023/12/25 01:53:29;;;;;;;38.13;35.23;;;;;;;;;;4156934;28;20116;-63
2023/12/25 01:55:31;;;;;;;34.83;32.13;;;;;;;;;;4150217;28;20073;-63
2023/12/25 01:57:33;;;;;;;35.40;32.40;;;;;;;;;;4149315;28;20042;-63
2023/12/25 01:59:35;;;;;;;36.63;33.58;;;;;;;;;;4150142;28;20509;-63
2023/12/25 02:01:37;;;;;;;37.50;35.13;;;;;;;;;;4164019;22;20041;-59
2023/12/25 02:03:38;;;;;;;36.80;33.88;;;;;;;;;;4116875;28;20130;-59
2023/12/25 02:05:40;;;;;;;38.10;35.45;;;;;;;;;;4117436;28;20459;-60
2023/12/25 02:07:43;;;;;;;35.70;33.00;;;;;;;;;;4117665;28;20039;-61
2023/12/25 02:09:48;;;;;;;36.28;34.25;;;;;;;;;;4129574;28;20047;-62
2023/12/25 02:11:50;;;;;;;36.92;34.42;;;;;;;;;;4117602;28;20066;-62
2023/12/25 02:13:55;;;;;;;38.90;35.50;;;;;;;;;;4117885;28;20078;-62
2023/12/25 02:15:57;;;;;;;39.53;35.90;;;;;;;;;;4117485;28;20051;-61
2023/12/25 02:17:59;;;;;;;37.28;34.00;;;;;;;;;;4117447;28;20051;-62
2023/12/25 02:20:02;;;;;;;41.83;38.42;;;;;;;;;;4117775;28;20046;-61
2023/12/25 02:22:07;;;;;;;44.47;41.03;;;;;;;;;;4117185;28;20093;-62
2023/12/25 02:24:12;;;;;;;43.97;40.15;;;;;;;;;;4117331;28;20047;-61
2023/12/25 02:26:14;;;;;;;43.30;40.15;;;;;;;;;;4117274;28;20051;-62
2023/12/25 02:28:16;;;;;;;43.05;39.22;;;;;;;;;;4117427;28;20047;-61
2023/12/25 02:30:17;;;;;;;43.97;40.08;;;;;;;;;;4117172;28;20067;-62
2023/12/25 02:32:19;;;;;;;40.30;36.97;;;;;;;;;;4117070;28;20070;-62
2023/12/25 02:34:21;;;;;;;38.80;35.97;;;;;;;;;;4115033;28;20043;-62
2023/12/25 02:36:22;;;;;;;42.07;38.33;;;;;;;;;;4115560;28;20294;-62
2023/12/25 02:38:24;;;;;;;38.88;36.25;;;;;;;;;;4115479;28;20451;-61
2023/12/25 02:40:26;;;;;;;44.17;40.20;;;;;;;;;;4120721;28;20035;-62
2023/12/25 02:42:28;;;;;;;48.92;44.08;;;;;;;;;;4115461;28;20381;-62
2023/12/25 02:44:29;;;;;;;55.78;49.80;;;;;;;;;;4115676;28;20194;-62
2023/12/25 02:46:31;;;;;;;52.10;44.25;;;;;;;;;;4115472;28;20558;-62
2023/12/25 02:48:32;;;;;;;48.67;43.50;;;;;;;;;;4116505;28;20589;-62
2023/12/25 02:50:34;;;;;;;51.95;46.67;;;;;;;;;;4116878;28;20528;-62
2023/12/25 02:52:36;;;;;;;52.20;46.83;;;;;;;;;;4123808;28;20156;-62
2023/12/25 02:54:38;;;;;;;50.50;45.57;;;;;;;;;;4116545;28;20051;-62
2023/12/25 02:56:40;;;;;;;49.40;44.45;;;;;;;;;;4117083;28;20682;-62
2023/12/25 02:58:41;;;;;;;48.45;43.78;;;;;;;;;;4116985;28;20372;-62
2023/12/25 03:00:43;;;;;;;46.50;42.15;;;;;;;;;;4116623;28;20047;-62
2023/12/25 03:02:45;;;;;;;44.73;40.77;;;;;;;;;;4116360;28;20443;-62
2023/12/25 03:04:46;;;;;;;53.55;47.80;;;;;;;;;;4117159;28;20089;-62
2023/12/25 03:06:48;;;;;;;50.67;45.42;;;;;;;;;;4116593;28;20406;-62
2023/12/25 03:08:50;;;;;;;53.37;48.20;;;;;;;;;;4123968;28;20470;-62
2023/12/25 03:10:51;;;;;;;47.13;42.75;;;;;;;;;;4122003;28;20321;-62
2023/12/25 03:12:53;;;;;;;48.08;43.25;;;;;;;;;;4116862;28;20125;-62
2023/12/25 03:14:55;;;;;;;50.05;45.25;;;;;;;;;;4116736;28;20105;-62
2023/12/25 03:16:56;;;;;;;47.20;43.10;;;;;;;;;;4116747;28;20086;-62
2023/12/25 03:18:58;;;;;;;47.13;42.90;;;;;;;;;;4117098;28;20499;-60
2023/12/25 03:21:00;;;;;;;43.80;40.20;;;;;;;;;;4116374;28;20455;-60
2023/12/25 03:23:01;;;;;;;39.65;36.25;;;;;;;;;;4116372;28;20038;-58
2023/12/25 03:25:03;;;;;;;40.03;36.97;;;;;;;;;;4116548;28;20051;-59
2023/12/25 03:27:05;;;;;;;44.00;39.78;;;;;;;;;;4116371;28;20047;-59
2023/12/25 03:29:06;;;;;;;42.37;38.83;;;;;;;;;;4116635;28;20039;-59
2023/12/25 03:31:08;;;;;;;44.08;40.08;;;;;;;;;;4099070;29;20051;-59
2023/12/25 03:33:10;;;;;;;38.78;35.90;;;;;;;;;;4116561;28;20076;-59
2023/12/25 03:35:11;;;;;;;36.20;32.75;;;;;;;;;;4116295;28;20046;-59
2023/12/25 03:37:13;;;;;;;38.22;35.67;;;;;;;;;;4116276;28;20498;-60
2023/12/25 03:39:15;;;;;;;38.28;35.33;;;;;;;;;;4116109;28;20395;-59
2023/12/25 03:41:16;;;;;;;42.22;38.28;;;;;;;;;;4116268;28;20078;-59
2023/12/25 03:43:19;;;;;;;44.00;39.60;;;;;;;;;;4116429;28;20042;-59
2023/12/25 03:45:21;;;;;;;40.53;36.92;;;;;;;;;;4115359;28;20042;-58
2023/12/25 03:47:22;;;;;;;43.95;39.72;;;;;;;;;;4098517;29;20499;-59
2023/12/25 03:49:24;;;;;;;41.72;38.58;;;;;;;;;;4116042;28;20461;-59
2023/12/25 03:51:27;;;;;;;;;;;;;;;;;;4116934;28;20130;-58
2023/12/25 03:53:28;;;;;;;45.95;41.88;;;;;;;;;;4091572;29;20341;-58
2023/12/25 03:55:30;;;;;;;46.17;41.83;;;;;;;;;;4115882;28;20039;-59
2023/12/25 03:57:32;;;;;;;47.63;43.07;;;;;;;;;;4116202;28;20344;-59
2023/12/25 03:59:34;;;;;;;48.03;43.72;;;;;;;;;;4115710;28;20050;-59
2023/12/25 04:01:39;;;;;;;50.43;45.57;;;;;;;;;;4115331;28;20085;-59
2023/12/25 04:03:40;;;;;;;46.22;42.30;;;;;;;;;;4115894;28;20043;-58
2023/12/25 04:05:42;;;;;;;43.73;40.03;;;;;;;;;;4098915;29;20047;-59
2023/12/25 04:07:44;;;;;;;43.37;40.00;;;;;;;;;;4116123;28;20055;-59
2023/12/25 04:09:45;;;;;;;46.33;41.88;;;;;;;;;;4129596;28;20292;-59
2023/12/25 04:11:47;;;;;;;44.53;40.60;;;;;;;;;;4115821;28;20125;-58
2023/12/25 04:13:53;;;;;;;47.08;42.92;;;;;;;;;;4115777;28;20043;-59
2023/12/25 04:15:54;;;;;;;42.92;38.70;;;;;;;;;;4115669;28;20049;-59
2023/12/25 04:17:56;;;;;;;51.47;46.08;;;;;;;;;;4115862;28;20082;-59
2023/12/25 04:19:58;;;;;;;59.45;52.50;;;;;;;;;;4115442;28;20047;-59
2023/12/25 04:21:59;;;;;;;53.35;47.75;;;;;;;;;;4115618;28;20483;-59
2023/12/25 04:24:01;;;;;;;57.47;47.23;;;;;;;;;;4115766;28;20049;-59
2023/12/25 04:26:03;;;;;;;46.22;41.95;;;;;;;;;;4115457;28;20494;-59
2023/12/25 04:28:05;;;;;;;45.95;41.92;;;;;;;;;;4098542;29;20047;-61
2023/12/25 04:30:06;;;;;;;45.25;40.55;;;;;;;;;;4115624;28;20085;-62
2023/12/25 04:32:08;;;;;;;49.50;44.75;;;;;;;;;;4115697;28;20038;-62
2023/12/25 04:34:10;;;;;;;48.03;43.47;;;;;;;;;;4115239;28;20043;-62
2023/12/25 04:36:11;;;;;;;46.28;42.20;;;;;;;;;;4115588;28;20063;-62
2023/12/25 04:38:13;;;;;;;46.65;42.67;;;;;;;;;;4115429;28;20058;-62
2023/12/25 04:40:14;;;;;;;46.65;42.72;;;;;;;;;;4115223;28;20565;-62
2023/12/25 04:42:16;;;;;;;44.60;40.67;;;;;;;;;;4115497;28;20565;-62
2023/12/25 04:44:17;;;;;;;42.58;38.67;;;;;;;;;;4115084;28;20070;-62
2023/12/25 04:46:19;;;;;;;42.73;38.83;;;;;;;;;;4115520;28;20039;-62
2023/12/25 04:48:21;;;;;;;41.70;37.55;;;;;;;;;;4115323;28;20042;-62
2023/12/25 04:50:23;;;;;;;41.15;37.25;;;;;;;;;;4115101;28;20051;-62
2023/12/25 04:52:25;;;;;;;38.38;35.88;;;;;;;;;;4121036;28;20077;-61
2023/12/25 04:54:26;;;;;;;39.13;35.97;;;;;;;;;;4119195;28;20074;-62
2023/12/25 04:56:28;;;;;;;36.25;33.25;;;;;;;;;;4115148;28;20082;-62
2023/12/25 04:58:30;;;;;;;34.70;31.70;;;;;;;;;;4114981;28;20050;-62
2023/12/25 05:00:31;;;;;;;39.17;35.58;;;;;;;;;;4115094;28;20047;-62
2023/12/25 05:02:33;;;;;;;39.40;36.55;;;;;;;;;;4106076;28;20069;-62
2023/12/25 05:04:36;;;;;;;39.85;36.58;;;;;;;;;;4114946;28;20536;-62
2023/12/25 05:06:38;;;;;;;43.03;39.33;;;;;;;;;;4115310;28;20039;-62
2023/12/25 05:08:39;;;;;;;41.60;37.50;;;;;;;;;;4115200;28;20031;-62
2023/12/25 05:10:41;;;;;;;41.83;38.22;;;;;;;;;;4113853;28;20042;-62
2023/12/25 05:12:43;;;;;;;40.10;36.87;;;;;;;;;;4115579;28;20039;-62
2023/12/25 05:14:46;;;;;;;43.53;39.95;;;;;;;;;;4115122;28;20329;-62
2023/12/25 05:16:48;;;;;;;42.90;39.17;;;;;;;;;;4115171;28;20097;-62
2023/12/25 05:18:49;;;;;;;42.05;38.83;;;;;;;;;;4115486;28;20039;-62
2023/12/25 05:20:52;;;;;;;44.45;40.25;;;;;;;;;;4115455;28;20039;-61
2023/12/25 05:22:53;;;;;;;42.60;39.20;;;;;;;;;;4113895;28;20057;-61
2023/12/25 05:24:55;;;;;;;42.30;38.70;;;;;;;;;;4114918;28;20140;-62
2023/12/25 05:26:56;;;;;;;43.50;39.60;;;;;;;;;;4115360;28;20078;-62
2023/12/25 05:28:58;;;;;;;39.30;35.97;;;;;;;;;;4114896;28;20125;-62
2023/12/25 05:31:00;;;;;;;40.30;37.17;;;;;;;;;;4113414;28;20039;-62
2023/12/25 05:33:01;;;;;;;40.28;36.90;;;;;;;;;;4113801;28;20526;-62
2023/12/25 05:35:04;;;;;;;36.85;33.67;;;;;;;;;;4115021;28;20540;-62
2023/12/25 05:37:05;;;;;;;39.78;35.92;;;;;;;;;;4114847;28;20051;-62
2023/12/25 05:39:07;;;;;;;40.53;36.30;;;;;;;;;;4115061;28;20101;-59
2023/12/25 05:41:14;;;;;;;40.90;37.25;;;;;;;;;;4115218;28;20053;-59
2023/12/25 05:43:16;;;;;;;39.17;36.37;;;;;;;;;;4115249;28;20042;-59
2023/12/25 05:45:19;;;;;;;38.15;35.17;;;;;;;;;;4113487;28;20038;-59
2023/12/25 05:47:21;;;;;;;37.33;34.42;;;;;;;;;;4114803;28;20043;-59
2023/12/25 05:49:22;;;;;;;35.93;33.47;;;;;;;;;;4114662;28;20409;-59
2023/12/25 05:51:24;;;;;;;40.27;37.20;;;;;;;;;;4114794;28;20782;-59
2023/12/25 05:53:26;;;;;;;34.78;31.98;;;;;;;;;;4125395;28;20090;-58
2023/12/25 05:55:27;;;;;;;40.80;36.70;;;;;;;;;;4114909;28;20042;-59
2023/12/25 05:57:29;;;;;;;39.42;35.53;;;;;;;;;;4114785;28;20414;-59
2023/12/25 05:59:31;;;;;;;40.90;37.13;;;;;;;;;;4114835;28;20046;-59
2023/12/25 06:01:32;;;;;;;40.97;37.67;;;;;;;;;;4112944;28;20062;-58
2023/12/25 06:03:35;;;;;;;40.57;37.07;;;;;;;;;;4114742;28;20046;-59
2023/12/25 06:05:37;;;;;;;41.15;37.50;;;;;;;;;;4114782;28;20836;-60
2023/12/25 06:07:38;;;;;;;39.08;35.67;;;;;;;;;;4114569;28;20035;-59
2023/12/25 06:09:40;;;;;;;38.10;34.93;;;;;;;;;;4116983;28;20400;-59
2023/12/25 06:11:42;;;;;;;39.58;36.70;;;;;;;;;;4116837;28;20278;-59
2023/12/25 06:13:44;;;;;;;36.00;33.28;;;;;;;;;;4116907;28;20051;-60
2023/12/25 06:15:45;;;;;;;40.72;37.25;;;;;;;;;;4116613;28;20134;-60
2023/12/25 06:17:47;;;;;;;41.05;38.03;;;;;;;;;;4117013;28;20474;-59
2023/12/25 06:19:48;;;;;;;40.65;37.22;;;;;;;;;;4116237;28;20560;-59
2023/12/25 06:21:50;;;;;;;39.43;36.17;;;;;;;;;;4117164;28;20039;-59
2023/12/25 06:23:53;;;;;;;39.10;36.10;;;;;;;;;;4117418;28;20044;-59
2023/12/25 06:25:55;;;;;;;41.15;37.95;;;;;;;;;;4117361;28;20070;-59
2023/12/25 06:27:57;;;;;;;42.20;38.40;;;;;;;;;;4117459;28;20078;-59
2023/12/25 06:30:03;;;;;;;43.30;39.42;;;;;;;;;;4117237;28;20139;-59
2023/12/25 06:32:05;;;;;;;40.28;36.70;;;;;;;;;;4117156;28;20504;-59
2023/12/25 06:34:07;;;;;;;42.75;39.28;;;;;;;;;;4116117;28;20039;-59
2023/12/25 06:36:08;;;;;;;43.40;38.55;;;;;;;;;;4117150;28;20042;-59
2023/12/25 06:38:12;;;;;;;40.30;37.00;;;;;;;;;;4114224;28;20472;-60
2023/12/25 06:40:13;;;;;;;40.97;37.42;;;;;;;;;;4117400;28;20078;-59
2023/12/25 06:42:15;;;;;;;41.87;38.20;;;;;;;;;;4117025;28;20050;-59
2023/12/25 06:44:16;;;;;;;39.72;36.13;;;;;;;;;;4117036;28;20042;-59
2023/12/25 06:46:18;;;;;;;39.33;36.13;;;;;;;;;;4117228;28;20052;-59
2023/12/25 06:48:20;;;;;;;41.83;38.30;;;;;;;;;;4117065;28;20121;-62
2023/12/25 06:50:21;;;;;;;38.25;34.75;;;;;;;;;;4117292;28;20058;-62
2023/12/25 06:52:23;;;;;;;45.15;41.10;;;;;;;;;;4122618;28;20384;-62
2023/12/25 06:54:25;;;;;;;48.65;44.42;;;;;;;;;;4123143;28;20047;-63
2023/12/25 06:56:26;;;;;;;49.50;45.17;;;;;;;;;;4116089;28;20070;-62
2023/12/25 06:58:28;;;;;;;52.88;47.90;;;;;;;;;;4111849;28;20469;-62
2023/12/25 07:00:30;;;;;;;52.92;47.60;;;;;;;;;;4096029;28;20043;-62
2023/12/25 07:02:31;;;;;;;50.95;45.88;;;;;;;;;;4116463;28;20113;-62
2023/12/25 07:04:33;;;;;;;48.87;44.30;;;;;;;;;;4117096;28;20039;-62
2023/12/25 07:06:35;;;;;;;53.20;47.22;;;;;;;;;;4116556;28;20042;-62
2023/12/25 07:08:37;;;;;;;46.37;42.03;;;;;;;;;;4118389;28;20039;-62
2023/12/25 07:10:38;;;;;;;50.55;45.95;;;;;;;;;;4116479;28;20039;-61
2023/12/25 07:12:40;;;;;;;47.05;42.55;;;;;;;;;;4107494;28;20043;-62
2023/12/25 07:14:42;;;;;;;44.33;39.72;;;;;;;;;;4116648;28;20054;-62
2023/12/25 07:16:44;;;;;;;47.00;42.80;;;;;;;;;;4116379;28;20049;-62
2023/12/25 07:18:45;;;;;;;43.30;39.67;;;;;;;;;;4116608;28;20054;-62
2023/12/25 07:20:47;;;;;;;40.43;36.73;;;;;;;;;;4116171;28;20137;-62
2023/12/25 07:22:49;;;;;;;53.17;41.77;;;;;;;;;;4116210;28;20286;-62
2023/12/25 07:24:50;;;;;;;46.40;42.17;;;;;;;;;;4116386;28;20294;-62
2023/12/25 07:26:52;;;;;;;45.27;40.67;;;;;;;;;;4116403;28;20495;-62
2023/12/25 07:28:54;;;;;;;41.63;38.08;;;;;;;;;;4126079;28;20410;-62
2023/12/25 07:30:57;;;;;;;45.60;40.78;;;;;;;;;;4099059;29;20075;-62
2023/12/25 07:32:59;;;;;;;45.10;40.67;;;;;;;;;;4116397;28;20074;-62
2023/12/25 07:35:01;;;;;;;50.20;45.20;;;;;;;;;;4116380;28;20038;-62
2023/12/25 07:37:03;;;;;;;50.00;45.03;;;;;;;;;;4116229;28;20046;-62
2023/12/25 07:39:05;;;;;;;46.08;41.60;;;;;;;;;;4116701;28;20042;-62
2023/12/25 07:41:10;;;;;;;46.90;42.05;;;;;;;;;;4116114;28;20053;-62
2023/12/25 07:43:11;;;;;;;44.45;40.58;;;;;;;;;;4116291;28;20078;-62
2023/12/25 07:45:13;;;;;;;48.40;43.45;;;;;;;;;;4114591;28;20039;-62
2023/12/25 07:47:15;;;;;;;50.10;45.17;;;;;;;;;;4116105;28;20093;-62
2023/12/25 07:49:17;;;;;;;66.95;60.17;;;;;;;;;;4116271;28;20126;-62
2023/12/25 07:51:19;;;;;;;;;;;;;;;;;;4091469;28;20054;-62
2023/12/25 07:53:20;;;;;;;62.15;54.22;;;;;;;;;;4124412;28;19922;-61
2023/12/25 07:55:22;;;;;;;54.28;48.45;;;;;;;;;;4104707;28;20086;-62
2023/12/25 07:57:24;;;;;;;54.58;49.28;;;;;;;;;;4107430;28;20561;-62
2023/12/25 07:59:25;;;;;;;52.27;47.27;;;;;;;;;;4097011;28;20717;-62
2023/12/25 08:01:27;;;;;;;53.03;47.80;;;;;;;;;;4107187;28;20682;-62
2023/12/25 08:03:29;;;;;;;55.42;50.75;;;;;;;;;;4115615;28;20078;-62
2023/12/25 08:05:31;;;;;;;74.53;58.05;;;;;;;;;;4098339;29;20137;-62
2023/12/25 08:07:32;;;;;;;82.60;65.43;;;;;;;;;;4112202;28;20031;-62
2023/12/25 08:09:34;;;;;;;75.50;64.45;;;;;;;;;;4113492;28;20394;-62
2023/12/25 08:11:36;;;;;;;51.30;46.40;;;;;;;;;;4113068;28;20071;-62
2023/12/25 08:13:37;;;;;;;47.27;42.30;;;;;;;;;;4106365;28;20049;-62
2023/12/25 08:15:39;;;;;;;50.83;46.28;;;;;;;;;;4103931;28;20490;-62
2023/12/25 08:17:41;;;;;;;51.03;46.22;;;;;;;;;;4112963;28;20073;-62
2023/12/25 08:19:43;;;;;;;54.00;48.88;;;;;;;;;;4113798;28;20042;-62
2023/12/25 08:21:45;;;;;;;49.92;45.33;;;;;;;;;;4111884;28;20071;-62
2023/12/25 08:23:46;;;;;;;43.60;39.63;;;;;;;;;;4104946;28;20058;-62
2023/12/25 08:25:48;;;;;;;43.80;39.90;;;;;;;;;;4115350;28;20042;-62
2023/12/25 08:27:49;;;;;;;50.22;45.63;;;;;;;;;;4114718;28;20130;-61
2023/12/25 08:29:51;;;;;;;48.30;43.78;;;;;;;;;;4110885;28;20038;-62
2023/12/25 08:31:53;;;;;;;42.67;39.57;;;;;;;;;;4110694;28;20081;-62
2023/12/25 08:33:55;;;;;;;44.53;40.50;;;;;;;;;;4107111;28;20303;-62
2023/12/25 08:35:56;;;;;;;46.70;42.53;;;;;;;;;;4110228;28;20043;-62
2023/12/25 08:37:59;;;;;;;44.53;40.80;;;;;;;;;;4114115;28;20061;-62
2023/12/25 08:40:03;;;;;;;42.25;38.53;;;;;;;;;;4110045;28;20077;-62
2023/12/25 08:42:05;;;;;;;40.97;37.78;;;;;;;;;;4115351;28;20046;-62
2023/12/25 08:44:07;;;;;;;44.03;40.08;;;;;;;;;;4107515;28;20051;-62
2023/12/25 08:46:09;;;;;;;;;;;;;;;;;;4107316;28;20527;-62
2023/12/25 08:48:10;;;;;;;59.83;54.03;;;;;;;;;;4107784;28;19944;-62
2023/12/25 08:50:12;;;;;;;56.05;50.00;;;;;;;;;;4105932;28;20122;-62
2023/12/25 08:52:14;;;;;;;52.13;46.63;;;;;;;;;;4112544;28;20449;-62
2023/12/25 08:54:16;;;;;;;56.55;51.10;;;;;;;;;;4102719;28;20419;-62
2023/12/25 08:56:21;;;;;;;52.70;47.53;;;;;;;;;;4110923;28;20123;-62
2023/12/25 08:58:24;;;;;;;49.65;45.08;;;;;;;;;;4115332;28;20038;-62
2023/12/25 09:00:25;;;;;;;;;;;;;;;;;;4115524;28;20507;-62
2023/12/25 09:02:27;;;;;;;45.47;41.25;;;;;;;;;;4115139;28;20001;-62
2023/12/25 09:04:29;;;;;;;49.13;43.90;;;;;;;;;;4115162;28;20482;-62
2023/12/25 09:06:30;;;;;;;57.95;52.28;;;;;;;;;;4111566;28;20146;-62
2023/12/25 09:08:32;;;;;;;61.25;54.80;;;;;;;;;;4106991;28;20050;-62
2023/12/25 09:10:34;;;;;;;50.63;45.55;;;;;;;;;;4106790;28;20443;-62
2023/12/25 09:12:35;;;;;;;43.15;39.08;;;;;;;;;;4115327;28;20047;-62
2023/12/25 09:14:37;;;;;;;43.72;39.10;;;;;;;;;;4113456;28;20226;-62
2023/12/25 09:16:39;;;;;;;45.50;41.17;;;;;;;;;;4113536;28;20434;-62
2023/12/25 09:18:40;;;;;;;56.97;51.13;;;;;;;;;;4107895;28;20131;-62
2023/12/25 09:20:42;;;;;;;60.97;54.70;;;;;;;;;;4109472;28;20063;-62
2023/12/25 09:22:44;;;;;;;60.37;54.47;;;;;;;;;;4114807;28;20067;-62
2023/12/25 09:24:46;;;;;;;59.58;53.80;;;;;;;;;;4109419;28;20306;-62
2023/12/25 09:26:48;;;;;;;60.53;54.43;;;;;;;;;;4106090;28;20059;-62
2023/12/25 09:28:50;;;;;;;56.22;50.78;;;;;;;;;;4112955;28;20397;-61
2023/12/25 09:30:52;;;;;;;57.97;52.35;;;;;;;;;;4113804;28;20039;-62
2023/12/25 09:32:54;;;;;;;56.83;51.47;;;;;;;;;;4112975;28;20070;-62
2023/12/25 09:34:56;;;;;;;53.70;48.43;;;;;;;;;;4109913;28;20039;-61
2023/12/25 09:36:58;;;;;;;56.40;42.17;;;;;;;;;;4114236;28;20046;-62
2023/12/25 09:38:59;;;;;;;47.38;43.00;;;;;;;;;;4110420;28;20058;-62
2023/12/25 09:41:01;;;;;;;48.67;44.03;;;;;;;;;;4114709;28;20052;-61
2023/12/25 09:43:03;;;;;;;45.22;41.38;;;;;;;;;;4115004;28;20101;-62
2023/12/25 09:45:05;;;;;;;44.37;40.07;;;;;;;;;;4113836;28;20066;-62
2023/12/25 09:47:07;;;;;;;42.33;38.80;;;;;;;;;;4114976;28;20047;-62
2023/12/25 09:49:08;;;;;;;53.13;48.17;;;;;;;;;;4117786;28;20039;-62
2023/12/25 09:51:11;;;;;;;51.90;46.75;;;;;;;;;;4118021;28;20043;-62
2023/12/25 09:53:13;;;;;;;48.90;44.67;;;;;;;;;;4110455;28;20073;-62
2023/12/25 09:55:14;;;;;;;49.83;45.38;;;;;;;;;;4117177;28;20105;-62
2023/12/25 09:57:17;;;;;;;54.13;49.50;;;;;;;;;;4104589;28;20043;-62
2023/12/25 09:59:19;;;;;;;50.50;45.95;;;;;;;;;;4105575;28;20054;-62
2023/12/25 10:01:21;;;;;;;51.38;46.83;;;;;;;;;;4117351;28;20078;-62
2023/12/25 10:03:24;;;;;;;51.55;46.45;;;;;;;;;;4106203;28;20062;-62
2023/12/25 10:05:26;;;;;;;48.30;43.92;;;;;;;;;;4117737;28;20042;-62
2023/12/25 10:07:27;;;;;;;51.92;47.13;;;;;;;;;;4117211;28;20598;-62
2023/12/25 10:09:33;;;;;;;55.42;50.75;;;;;;;;;;4111118;28;20035;-62
2023/12/25 10:11:35;;;;;;;57.03;51.25;;;;;;;;;;4112047;28;20049;-62
2023/12/25 10:13:36;;;;;;;59.17;53.22;;;;;;;;;;4111390;28;20408;-62
2023/12/25 10:15:38;;;;;;;55.63;48.50;;;;;;;;;;4108988;28;20058;-62
2023/12/25 10:17:41;;;;;;;47.67;43.35;;;;;;;;;;4114587;28;20322;-62
2023/12/25 10:19:54;;;;;;;51.67;46.57;;;;;;;;;;4117331;28;20050;-62
2023/12/25 10:21:56;;;;;;;51.72;46.78;;;;;;;;;;4111302;28;20289;-62
2023/12/25 10:23:58;;;;;;;50.83;46.03;;;;;;;;;;4116447;28;20047;-62
2023/12/25 10:26:01;;;;;;;48.23;43.53;;;;;;;;;;4110125;28;20035;-62
2023/12/25 10:28:10;;;;;;;45.80;41.90;;;;;;;;;;4098148;29;20523;-59
2023/12/25 10:30:15;;;;;;;44.38;40.45;;;;;;;;;;4118232;28;20101;-59
2023/12/25 10:32:20;;;;;;;46.70;42.10;;;;;;;;;;4116003;28;20480;-60
2023/12/25 10:34:22;;;;;;;45.58;41.60;;;;;;;;;;4109626;28;20074;-60
2023/12/25 10:36:24;;;;;;;44.17;40.22;;;;;;;;;;4117416;28;20042;-59
2023/12/25 10:38:26;;;;;;;46.13;41.45;;;;;;;;;;4112866;28;20049;-60
2023/12/25 10:40:27;;;;;;;43.78;39.72;;;;;;;;;;4110858;28;20043;-59
2023/12/25 10:42:29;;;;;;;38.40;35.28;;;;;;;;;;4105568;28;20050;-60
2023/12/25 10:44:32;;;;;;;36.58;33.08;;;;;;;;;;4109782;28;20109;-59
2023/12/25 10:46:34;;;;;;;35.60;32.65;;;;;;;;;;4108817;28;20047;-59
2023/12/25 10:48:36;;;;;;;37.25;34.17;;;;;;;;;;4095935;29;20606;-59
2023/12/25 10:50:39;;;;;;;36.13;33.35;;;;;;;;;;4097011;28;20649;-60
2023/12/25 10:52:42;;;;;;;32.20;29.98;;;;;;;;;;4103953;28;20075;-60
2023/12/25 10:54:46;;;;;;;53.10;47.75;;;;;;;;;;4111466;28;20085;-61
2023/12/25 10:56:48;;;;;;;35.28;32.10;;;;;;;;;;4110724;28;20073;-60
2023/12/25 10:58:50;;;;;;;35.00;32.17;;;;;;;;;;4109292;28;20417;-60
2023/12/25 11:00:57;;;;;;;33.30;30.45;;;;;;;;;;4114913;28;20043;-59
2023/12/25 11:03:01;;;;;;;30.13;27.90;;;;;;;;;;4114074;28;20063;-59
2023/12/25 11:05:03;;;;;;;32.58;30.33;;;;;;;;;;4109665;28;20141;-60
2023/12/25 11:07:05;;;;;;;33.42;30.75;;;;;;;;;;4107085;28;20039;-60
2023/12/25 11:09:06;;;;;;;43.07;39.27;;;;;;;;;;4117936;28;20423;-59
2023/12/25 11:11:10;;;;;;;40.72;37.13;;;;;;;;;;4110425;28;20541;-60
2023/12/25 11:13:13;;;;;;;47.10;42.65;;;;;;;;;;4112502;28;20047;-60
2023/12/25 11:15:14;;;;;;;;;;;;;;;;;;4107544;28;20074;-60
2023/12/25 11:17:16;;;;;;;36.13;33.03;;;;;;;;;;4112599;28;19925;-60
2023/12/25 11:19:18;;;;;;;37.58;34.70;;;;;;;;;;4111276;28;20113;-60
2023/12/25 11:21:27;;;;;;;35.00;32.08;;;;;;;;;;4111626;28;20502;-59
2023/12/25 11:23:30;;;;;;;34.05;31.20;;;;;;;;;;4112782;28;20089;-59
2023/12/25 11:25:33;;;;;;;38.35;35.13;;;;;;;;;;4116440;28;20094;-60
2023/12/25 11:27:36;;;;;;;37.35;33.72;;;;;;;;;;4113126;28;20078;-60
2023/12/25 11:29:37;;;;;;;35.22;31.50;;;;;;;;;;4104558;28;20077;-60
2023/12/25 11:31:43;;;;;;;35.23;31.43;;;;;;;;;;4109169;28;20066;-60
2023/12/25 11:33:47;;;;;;;32.30;29.60;;;;;;;;;;4111219;28;20515;-61
2023/12/25 11:35:50;;;;;;;34.30;31.40;;;;;;;;;;4108578;28;20134;-59
2023/12/25 11:38:11;;;;;;;34.42;31.50;;;;;;;;;;4114188;28;20050;-60
2023/12/25 11:40:13;;;;;;;36.45;32.83;;;;;;;;;;4107277;28;20050;-60
2023/12/25 11:42:14;;;;;;;39.70;35.95;;;;;;;;;;4107793;28;20126;-60
2023/12/25 11:44:29;;;;;;;36.65;32.67;;;;;;;;;;4114149;28;20047;-60
2023/12/25 11:46:34;;;;;;;32.30;29.30;;;;;;;;;;4111163;28;20077;-59
2023/12/25 11:48:36;;;;;;;30.45;27.67;;;;;;;;;;4115204;28;20082;-61
2023/12/25 11:50:38;;;;;;;30.30;28.27;;;;;;;;;;4114444;28;20035;-62
2023/12/25 11:52:42;;;;;;;33.40;30.55;;;;;;;;;;4095224;28;20051;-62